^^
Datos históricos de la estación: Murcia-Puente Tocinos
Diario Informe para Julio 22, 2019 Unidades:  Ambas    Inglés   Métrico
Diario Semanal Mensual Anual Configurable
  Máximo: Mínimo: Media:
Temperatura: 90.9 °F /  32.7 °C 76.5 °F /  24.7 °C 83.5 °F /  28.6 °C
Punto de rocio: 67.3 °F /  19.6 °C 51.3 °F /  10.7 °C 62.4 °F /  16.9 °C
Humedad: 67% 27% 51%
Velocidad viento: 14mph /  22.5km/h - 6.6mph /  10.7km/h
Racha viento: 25.3mph /  40.7km/h - -
Viento- - ESE
Presión: 30.1 in /  1019.1 hPa 30 in /  1016.2 hPa -
Precipitación: 0 in /  0.0 mm    
Historical Graphs
 
 
Tabla de datos para Julio 22, 2019
Hora Temperatura Punto de rocio Presión Viento Velocidad viento Racha viento Humedad Intensidad lluvia(por hora) Nubes
00:04 79.9 °F /  26.6 °C 67.1 °F /  19.5 °C 30.1in /  1019.0hPa NE 5.9mph /  9.5km/h 9.2mph /  14.8km/h 65% 0in /  0.0mm CLR
00:09 79.7 °F /  26.5 °C 67.3 °F /  19.6 °C 30.1in /  1019.0hPa NNE 5.4mph /  8.7km/h 10.4mph /  16.7km/h 66% 0in /  0.0mm CLR
00:14 79.5 °F /  26.4 °C 67.3 °F /  19.6 °C 30.1in /  1019.0hPa NE 5.4mph /  8.7km/h 4.6mph /  7.4km/h 66% 0in /  0.0mm CLR
00:19 79.5 °F /  26.4 °C 67.3 °F /  19.6 °C 30.1in /  1019.0hPa North 4.3mph /  6.9km/h 5.2mph /  8.4km/h 66% 0in /  0.0mm CLR
00:24 79.3 °F /  26.3 °C 66.9 °F /  19.4 °C 30.1in /  1019.0hPa NE 4.3mph /  6.9km/h 3.5mph /  5.6km/h 66% 0in /  0.0mm CLR
00:29 79.3 °F /  26.3 °C 66.9 °F /  19.4 °C 30.1in /  1019.0hPa North 2.4mph /  3.9km/h 2.9mph /  4.7km/h 66% 0in /  0.0mm CLR
00:34 79.3 °F /  26.3 °C 66.9 °F /  19.4 °C 30.1in /  1018.9hPa NNE 2.4mph /  3.9km/h 4.6mph /  7.4km/h 66% 0in /  0.0mm CLR
00:39 79.3 °F /  26.3 °C 66.9 °F /  19.4 °C 30.1in /  1018.9hPa NE 2mph /  3.2km/h 2.3mph /  3.7km/h 66% 0in /  0.0mm CLR
00:44 79.3 °F /  26.3 °C 66.9 °F /  19.4 °C 30.1in /  1018.9hPa North 2mph /  3.2km/h   66% 0in /  0.0mm CLR
00:49 79.2 °F /  26.2 °C 66.7 °F /  19.3 °C 30.1in /  1019.1hPa North 1.8mph /  2.9km/h 3.5mph /  5.6km/h 66% 0in /  0.0mm CLR
00:54 79.3 °F /  26.3 °C 66.9 °F /  19.4 °C 30.1in /  1019.1hPa NW 1.8mph /  2.9km/h 3.6mph /  5.8km/h 66% 0in /  0.0mm CLR
00:59 79.3 °F /  26.3 °C 66.9 °F /  19.4 °C 30.1in /  1019.1hPa NW 1.8mph /  2.9km/h 2.9mph /  4.7km/h 66% 0in /  0.0mm CLR
01:04 79.2 °F /  26.2 °C 66.7 °F /  19.3 °C 30.1in /  1018.9hPa NW 1.8mph /  2.9km/h 2.3mph /  3.7km/h 66% 0in /  0.0mm CLR
01:09 79.2 °F /  26.2 °C 66.7 °F /  19.3 °C 30.1in /  1018.9hPa NW 1.8mph /  2.9km/h 3.5mph /  5.6km/h 66% 0in /  0.0mm CLR
01:14 79.2 °F /  26.2 °C 66.4 °F /  19.1 °C 30.1in /  1018.9hPa NW 1.8mph /  2.9km/h 4.6mph /  7.4km/h 65% 0in /  0.0mm CLR
01:19 79.2 °F /  26.2 °C 66.4 °F /  19.1 °C 30.1in /  1018.8hPa NW 2.4mph /  3.9km/h 3.5mph /  5.6km/h 65% 0in /  0.0mm CLR
01:24 79.2 °F /  26.2 °C 66.4 °F /  19.1 °C 30.1in /  1018.8hPa NW 2.4mph /  3.9km/h 2.3mph /  3.7km/h 65% 0in /  0.0mm CLR
01:29 79.2 °F /  26.2 °C 66.4 °F /  19.1 °C 30.1in /  1018.8hPa NW 1.4mph /  2.3km/h   65% 0in /  0.0mm CLR
01:34 79.2 °F /  26.2 °C 66.4 °F /  19.1 °C 30.1in /  1018.6hPa NW 1.4mph /  2.3km/h 2mph /  3.2km/h 65% 0in /  0.0mm CLR
01:39 79.2 °F /  26.2 °C 66.4 °F /  19.1 °C 30.1in /  1018.6hPa Calm   2.3mph /  3.7km/h 65% 0in /  0.0mm CLR
01:44 79.2 °F /  26.2 °C 66.4 °F /  19.1 °C 30.1in /  1018.6hPa Calm     65% 0in /  0.0mm CLR
01:49 79.2 °F /  26.2 °C 66.4 °F /  19.1 °C 30.1in /  1018.7hPa Calm   3.5mph /  5.6km/h 65% 0in /  0.0mm CLR
01:54 79.2 °F /  26.2 °C 66.4 °F /  19.1 °C 30.1in /  1018.7hPa Calm   2.9mph /  4.7km/h 65% 0in /  0.0mm CLR
01:59 79.2 °F /  26.2 °C 66.4 °F /  19.1 °C 30.1in /  1018.7hPa NW 2.4mph /  3.9km/h 4.6mph /  7.4km/h 65% 0in /  0.0mm CLR
02:04 79.2 °F /  26.2 °C 65.8 °F /  18.8 °C 30.1in /  1018.5hPa WNW 2.4mph /  3.9km/h 3.5mph /  5.6km/h 64% 0in /  0.0mm CLR
02:09 79 °F /  26.1 °C 65.8 °F /  18.8 °C 30.1in /  1018.5hPa WNW 2.4mph /  3.9km/h 3.5mph /  5.6km/h 64% 0in /  0.0mm CLR
02:14 79 °F /  26.1 °C 65.8 °F /  18.8 °C 30.1in /  1018.5hPa WNW 2.4mph /  3.9km/h   64% 0in /  0.0mm CLR
02:19 79 °F /  26.1 °C 65.8 °F /  18.8 °C 30.1in /  1018.4hPa WSW 1.4mph /  2.3km/h 4.6mph /  7.4km/h 64% 0in /  0.0mm CLR
02:24 79.2 °F /  26.2 °C 65.8 °F /  18.8 °C 30.1in /  1018.4hPa WSW 1.4mph /  2.3km/h 4.6mph /  7.4km/h 64% 0in /  0.0mm CLR
02:29 79.2 °F /  26.2 °C 65.8 °F /  18.8 °C 30.1in /  1018.4hPa WSW 2.4mph /  3.9km/h 3.5mph /  5.6km/h 64% 0in /  0.0mm CLR
02:34 79.2 °F /  26.2 °C 65.5 °F /  18.6 °C 30.1in /  1018.4hPa WSW 2.4mph /  3.9km/h 2.4mph /  3.9km/h 63% 0in /  0.0mm CLR
02:39 79.2 °F /  26.2 °C 65.5 °F /  18.6 °C 30.1in /  1018.4hPa West 1.8mph /  2.9km/h 3.5mph /  5.6km/h 63% 0in /  0.0mm CLR
02:44 79.3 °F /  26.3 °C 65.7 °F /  18.7 °C 30.1in /  1018.4hPa WSW 1.8mph /  2.9km/h 4.6mph /  7.4km/h 63% 0in /  0.0mm CLR
02:49 79.5 °F /  26.4 °C 65.5 °F /  18.6 °C 30.1in /  1018.2hPa WSW 2mph /  3.2km/h 4.6mph /  7.4km/h 62% 0in /  0.0mm CLR
02:54 79.5 °F /  26.4 °C 65.5 °F /  18.6 °C 30.1in /  1018.2hPa WSW 2mph /  3.2km/h 3.5mph /  5.6km/h 62% 0in /  0.0mm CLR
02:59 79.5 °F /  26.4 °C 64.9 °F /  18.3 °C 30.1in /  1018.2hPa WSW 1.8mph /  2.9km/h   61% 0in /  0.0mm CLR
03:04 79.7 °F /  26.5 °C 65.1 °F /  18.4 °C 30.1in /  1018.0hPa WSW 1.8mph /  2.9km/h   61% 0in /  0.0mm CLR
03:09 79.9 °F /  26.6 °C 65.7 °F /  18.7 °C 30.1in /  1018.0hPa Calm     62% 0in /  0.0mm CLR
03:14 79.9 °F /  26.6 °C 65.7 °F /  18.7 °C 30.1in /  1018.0hPa Calm     62% 0in /  0.0mm CLR
03:19 79.7 °F /  26.5 °C 65.5 °F /  18.6 °C 30.1in /  1018.1hPa Calm     62% 0in /  0.0mm CLR
03:24 79.5 °F /  26.4 °C 65.5 °F /  18.6 °C 30.1in /  1018.1hPa Calm   5.2mph /  8.4km/h 62% 0in /  0.0mm CLR
03:29 79.5 °F /  26.4 °C 65.8 °F /  18.8 °C 30.1in /  1018.1hPa South 2.9mph /  4.7km/h 5.8mph /  9.3km/h 63% 0in /  0.0mm CLR
03:34 79.3 °F /  26.3 °C 66 °F /  18.9 °C 30.1in /  1017.9hPa South 2.9mph /  4.7km/h 5.8mph /  9.3km/h 64% 0in /  0.0mm CLR
03:39 79.2 °F /  26.2 °C 66.4 °F /  19.1 °C 30.1in /  1017.9hPa South 4mph /  6.4km/h 6.9mph /  11.1km/h 65% 0in /  0.0mm CLR
03:44 79 °F /  26.1 °C 66.2 °F /  19.0 °C 30.1in /  1017.9hPa South 4mph /  6.4km/h 5.8mph /  9.3km/h 65% 0in /  0.0mm CLR
03:49 78.8 °F /  26.0 °C 66.6 °F /  19.2 °C 30.1in /  1018.1hPa SSW 5.2mph /  8.4km/h 6.9mph /  11.1km/h 66% 0in /  0.0mm CLR
03:54 78.8 °F /  26.0 °C 66.6 °F /  19.2 °C 30.1in /  1018.1hPa SSW 5.2mph /  8.4km/h 5.8mph /  9.3km/h 66% 0in /  0.0mm CLR
03:59 79 °F /  26.1 °C 66.6 °F /  19.2 °C 30.1in /  1018.1hPa SW 4mph /  6.4km/h 5.2mph /  8.4km/h 66% 0in /  0.0mm CLR
04:04 79 °F /  26.1 °C 66.6 °F /  19.2 °C 30.1in /  1018.0hPa SW 4mph /  6.4km/h 5.8mph /  9.3km/h 66% 0in /  0.0mm CLR
04:09 79 °F /  26.1 °C 66.6 °F /  19.2 °C 30.1in /  1018.0hPa SW 4.3mph /  6.9km/h 6.9mph /  11.1km/h 66% 0in /  0.0mm CLR
04:14 79 °F /  26.1 °C 66.6 °F /  19.2 °C 30.1in /  1018.0hPa South 4.3mph /  6.9km/h 5.8mph /  9.3km/h 66% 0in /  0.0mm CLR
04:19 78.8 °F /  26.0 °C 66.6 °F /  19.2 °C 30.1in /  1017.9hPa SW 4mph /  6.4km/h 6.9mph /  11.1km/h 66% 0in /  0.0mm CLR
04:24 78.6 °F /  25.9 °C 66.4 °F /  19.1 °C 30.1in /  1017.9hPa SSW 4mph /  6.4km/h 5.8mph /  9.3km/h 66% 0in /  0.0mm CLR
04:29 78.6 °F /  25.9 °C 66.4 °F /  19.1 °C 30.1in /  1017.9hPa South 4.7mph /  7.6km/h 4.6mph /  7.4km/h 66% 0in /  0.0mm CLR
04:34 78.4 °F /  25.8 °C 66 °F /  18.9 °C 30.1in /  1017.9hPa SSE 4.7mph /  7.6km/h 2.3mph /  3.7km/h 66% 0in /  0.0mm CLR
04:39 78.4 °F /  25.8 °C 66 °F /  18.9 °C 30.1in /  1017.9hPa SSW 2.9mph /  4.7km/h 4.6mph /  7.4km/h 66% 0in /  0.0mm CLR
04:44 78.4 °F /  25.8 °C 66 °F /  18.9 °C 30.1in /  1017.9hPa SSW 2.9mph /  4.7km/h 4.6mph /  7.4km/h 66% 0in /  0.0mm CLR
04:49 78.3 °F /  25.7 °C 66 °F /  18.9 °C 30.1in /  1017.8hPa SW 3.6mph /  5.8km/h 4.6mph /  7.4km/h 66% 0in /  0.0mm CLR
04:54 78.3 °F /  25.7 °C 66.4 °F /  19.1 °C 30.1in /  1017.8hPa SSW 3.6mph /  5.8km/h 5.8mph /  9.3km/h 67% 0in /  0.0mm CLR
04:59 78.1 °F /  25.6 °C 65.8 °F /  18.8 °C 30.1in /  1017.8hPa SSW 3.6mph /  5.8km/h 4.6mph /  7.4km/h 66% 0in /  0.0mm CLR
05:04 78.1 °F /  25.6 °C 66.2 °F /  19.0 °C 30.1in /  1017.7hPa South 3.6mph /  5.8km/h 4.6mph /  7.4km/h 67% 0in /  0.0mm CLR
05:09 78.1 °F /  25.6 °C 65.8 °F /  18.8 °C 30.1in /  1017.7hPa SSW 3.1mph /  5.0km/h 5.8mph /  9.3km/h 66% 0in /  0.0mm CLR
05:14 77.9 °F /  25.5 °C 65.7 °F /  18.7 °C 30.1in /  1017.7hPa South 3.1mph /  5.0km/h 4.6mph /  7.4km/h 66% 0in /  0.0mm CLR
05:19 77.7 °F /  25.4 °C 65.5 °F /  18.6 °C 30.1in /  1017.6hPa SSW 3.6mph /  5.8km/h 4.7mph /  7.6km/h 66% 0in /  0.0mm CLR
05:24 77.7 °F /  25.4 °C 65.5 °F /  18.6 °C 30.1in /  1017.6hPa SSW 3.6mph /  5.8km/h 4.6mph /  7.4km/h 66% 0in /  0.0mm CLR
05:29 77.7 °F /  25.4 °C 65.5 °F /  18.6 °C 30.1in /  1017.6hPa SSW 4mph /  6.4km/h 5.8mph /  9.3km/h 66% 0in /  0.0mm CLR
05:34 77.5 °F /  25.3 °C 65.3 °F /  18.5 °C 30.1in /  1017.6hPa South 4mph /  6.4km/h 5.2mph /  8.4km/h 66% 0in /  0.0mm CLR
05:39 77.5 °F /  25.3 °C 65.3 °F /  18.5 °C 30.1in /  1017.6hPa South 3.6mph /  5.8km/h 4.6mph /  7.4km/h 66% 0in /  0.0mm CLR
05:44 77.5 °F /  25.3 °C 65.3 °F /  18.5 °C 30.1in /  1017.6hPa SSW 3.6mph /  5.8km/h 5.4mph /  8.7km/h 66% 0in /  0.0mm CLR
05:49 77.4 °F /  25.2 °C 65.1 °F /  18.4 °C 30.1in /  1017.6hPa SSW 3.6mph /  5.8km/h 4.6mph /  7.4km/h 66% 0in /  0.0mm CLR
05:54 77.2 °F /  25.1 °C 64.6 °F /  18.1 °C 30.1in /  1017.6hPa SSW 3.6mph /  5.8km/h 5.8mph /  9.3km/h 65% 0in /  0.0mm CLR
05:59 77.2 °F /  25.1 °C 64.6 °F /  18.1 °C 30.1in /  1017.6hPa SW 4mph /  6.4km/h 4.6mph /  7.4km/h 65% 0in /  0.0mm CLR
06:04 77.2 °F /  25.1 °C 64.6 °F /  18.1 °C 30.1in /  1017.6hPa SW 4mph /  6.4km/h 3.5mph /  5.6km/h 65% 0in /  0.0mm CLR
06:09 77.2 °F /  25.1 °C 64.6 °F /  18.1 °C 30.1in /  1017.6hPa SW 2.9mph /  4.7km/h 3.5mph /  5.6km/h 65% 0in /  0.0mm CLR
06:14 77.2 °F /  25.1 °C 64.6 °F /  18.1 °C 30.1in /  1017.6hPa SSW 2.9mph /  4.7km/h 4.6mph /  7.4km/h 65% 0in /  0.0mm CLR
06:19 77.2 °F /  25.1 °C 64.6 °F /  18.1 °C 30.1in /  1017.6hPa SSW 2.4mph /  3.9km/h 3.5mph /  5.6km/h 65% 0in /  0.0mm CLR
06:24 77 °F /  25.0 °C 64.2 °F /  17.9 °C 30.1in /  1017.6hPa SSW 2.4mph /  3.9km/h 5.8mph /  9.3km/h 65% 0in /  0.0mm CLR
06:29 76.8 °F /  24.9 °C 64.2 °F /  17.9 °C 30.1in /  1017.6hPa South 3.6mph /  5.8km/h 6.9mph /  11.1km/h 65% 0in /  0.0mm CLR
06:34 76.8 °F /  24.9 °C 63.7 °F /  17.6 °C 30.1in /  1017.8hPa South 3.6mph /  5.8km/h 8.1mph /  13.0km/h 64% 0in /  0.0mm CLR
06:39 76.6 °F /  24.8 °C 63.5 °F /  17.5 °C 30.1in /  1017.8hPa SW 4.7mph /  7.6km/h 6.9mph /  11.1km/h 64% 0in /  0.0mm CLR
06:44 76.6 °F /  24.8 °C 63.5 °F /  17.5 °C 30.1in /  1017.8hPa SSE 4.7mph /  7.6km/h 5.8mph /  9.3km/h 64% 0in /  0.0mm CLR
06:49 76.5 °F /  24.7 °C 63.3 °F /  17.4 °C 30.1in /  1017.8hPa SW 4mph /  6.4km/h 5.8mph /  9.3km/h 64% 0in /  0.0mm CLR
06:54 76.5 °F /  24.7 °C 63.3 °F /  17.4 °C 30.1in /  1017.8hPa SW 4mph /  6.4km/h 4.6mph /  7.4km/h 64% 0in /  0.0mm CLR
06:59 76.5 °F /  24.7 °C 63.3 °F /  17.4 °C 30.1in /  1017.8hPa SW 3.1mph /  5.0km/h 4.6mph /  7.4km/h 64% 0in /  0.0mm CLR
07:04 76.5 °F /  24.7 °C 63.3 °F /  17.4 °C 30.1in /  1017.9hPa SW 3.1mph /  5.0km/h 4.6mph /  7.4km/h 64% 0in /  0.0mm CLR
07:09 76.5 °F /  24.7 °C 63.3 °F /  17.4 °C 30.1in /  1017.9hPa SSW 3.1mph /  5.0km/h 5.8mph /  9.3km/h 64% 0in /  0.0mm CLR
07:14 76.6 °F /  24.8 °C 63.5 °F /  17.5 °C 30.1in /  1017.9hPa South 3.1mph /  5.0km/h 5.8mph /  9.3km/h 64% 0in /  0.0mm CLR
07:19 76.6 °F /  24.8 °C 63.5 °F /  17.5 °C 30.1in /  1018.0hPa SW 4.3mph /  6.9km/h 6.9mph /  11.1km/h 64% 0in /  0.0mm CLR
07:24 76.6 °F /  24.8 °C 63.5 °F /  17.5 °C 30.1in /  1018.0hPa SSW 4.3mph /  6.9km/h 8.1mph /  13.0km/h 64% 0in /  0.0mm CLR
07:29 76.5 °F /  24.7 °C 63.3 °F /  17.4 °C 30.1in /  1018.0hPa South 5.2mph /  8.4km/h 6.9mph /  11.1km/h 64% 0in /  0.0mm CLR
07:34 76.5 °F /  24.7 °C 63.3 °F /  17.4 °C 30.1in /  1018.1hPa SW 5.2mph /  8.4km/h 9.2mph /  14.8km/h 64% 0in /  0.0mm CLR
07:39 76.5 °F /  24.7 °C 63.3 °F /  17.4 °C 30.1in /  1018.1hPa South 5.2mph /  8.4km/h 8.1mph /  13.0km/h 64% 0in /  0.0mm CLR
07:44 76.5 °F /  24.7 °C 63.9 °F /  17.7 °C 30.1in /  1018.1hPa South 5.2mph /  8.4km/h 5.8mph /  9.3km/h 65% 0in /  0.0mm CLR
07:49 76.5 °F /  24.7 °C 63.9 °F /  17.7 °C 30.1in /  1018.2hPa SW 4.7mph /  7.6km/h 5.8mph /  9.3km/h 65% 0in /  0.0mm CLR
07:54 76.5 °F /  24.7 °C 63.3 °F /  17.4 °C 30.1in /  1018.2hPa WSW 4.7mph /  7.6km/h 5.8mph /  9.3km/h 64% 0in /  0.0mm CLR
07:59 76.6 °F /  24.8 °C 63.5 °F /  17.5 °C 30.1in /  1018.2hPa SW 4mph /  6.4km/h 4.6mph /  7.4km/h 64% 0in /  0.0mm CLR
08:04 76.6 °F /  24.8 °C 63.1 °F /  17.3 °C 30.1in /  1018.3hPa SSW 4mph /  6.4km/h 4.6mph /  7.4km/h 63% 0in /  0.0mm CLR
08:09 76.8 °F /  24.9 °C 63.3 °F /  17.4 °C 30.1in /  1018.3hPa South 3.1mph /  5.0km/h 4.6mph /  7.4km/h 63% 0in /  0.0mm CLR
08:14 77.2 °F /  25.1 °C 63.7 °F /  17.6 °C 30.1in /  1018.3hPa SSW 3.1mph /  5.0km/h 4.7mph /  7.6km/h 63% 0in /  0.0mm CLR
08:19 77.4 °F /  25.2 °C 63.9 °F /  17.7 °C 30.1in /  1018.5hPa SSE 3.1mph /  5.0km/h 5.8mph /  9.3km/h 63% 0in /  0.0mm CLR
08:24 77.5 °F /  25.3 °C 63.5 °F /  17.5 °C 30.1in /  1018.5hPa SSW 3.1mph /  5.0km/h 4.6mph /  7.4km/h 62% 0in /  0.0mm CLR
08:29 77.5 °F /  25.3 °C 63.5 °F /  17.5 °C 30.1in /  1018.5hPa SSW 3.1mph /  5.0km/h 4.7mph /  7.6km/h 62% 0in /  0.0mm CLR
08:34 77.7 °F /  25.4 °C 63.1 °F /  17.3 °C 30.1in /  1018.6hPa South 3.1mph /  5.0km/h 5.8mph /  9.3km/h 61% 0in /  0.0mm CLR
08:39 77.7 °F /  25.4 °C 63.1 °F /  17.3 °C 30.1in /  1018.6hPa South 3.1mph /  5.0km/h 4.6mph /  7.4km/h 61% 0in /  0.0mm CLR
08:44 78.1 °F /  25.6 °C 63.5 °F /  17.5 °C 30.1in /  1018.6hPa SSE 3.1mph /  5.0km/h 4.6mph /  7.4km/h 61% 0in /  0.0mm CLR
08:49 78.3 °F /  25.7 °C 63.1 °F /  17.3 °C 30.1in /  1018.7hPa West 2.9mph /  4.7km/h 3.5mph /  5.6km/h 60% 0in /  0.0mm CLR
08:54 78.6 °F /  25.9 °C 63.1 °F /  17.3 °C 30.1in /  1018.7hPa West 2.9mph /  4.7km/h 3.5mph /  5.6km/h 59% 0in /  0.0mm CLR
08:59 79 °F /  26.1 °C 63.3 °F /  17.4 °C 30.1in /  1018.7hPa South 1.8mph /  2.9km/h 4.6mph /  7.4km/h 59% 0in /  0.0mm CLR
09:04 79.2 °F /  26.2 °C 62.6 °F /  17.0 °C 30.1in /  1018.8hPa NW 1.8mph /  2.9km/h 3.5mph /  5.6km/h 57% 0in /  0.0mm CLR
09:09 79.3 °F /  26.3 °C 62.8 °F /  17.1 °C 30.1in /  1018.8hPa West 2.4mph /  3.9km/h 4.3mph /  6.9km/h 57% 0in /  0.0mm CLR
09:14 79.5 °F /  26.4 °C 62.4 °F /  16.9 °C 30.1in /  1018.8hPa NW 2.4mph /  3.9km/h 3.6mph /  5.8km/h 56% 0in /  0.0mm CLR
09:19 79.9 °F /  26.6 °C 62.2 °F /  16.8 °C 30.1in /  1018.7hPa NW 2.4mph /  3.9km/h 3.5mph /  5.6km/h 55% 0in /  0.0mm CLR
09:24 80.2 °F /  26.8 °C 62.1 °F /  16.7 °C 30.1in /  1018.7hPa WNW 2.4mph /  3.9km/h 4.6mph /  7.4km/h 54% 0in /  0.0mm CLR
09:29 80.8 °F /  27.1 °C 62.6 °F /  17.0 °C 30.1in /  1018.7hPa West 2.4mph /  3.9km/h 4.6mph /  7.4km/h 54% 0in /  0.0mm CLR
09:34 81 °F /  27.2 °C 62.2 °F /  16.8 °C 30.1in /  1018.8hPa West 2.4mph /  3.9km/h 4.6mph /  7.4km/h 53% 0in /  0.0mm CLR
09:39 81.1 °F /  27.3 °C 62.4 °F /  16.9 °C 30.1in /  1018.8hPa NW 2.9mph /  4.7km/h 3.5mph /  5.6km/h 53% 0in /  0.0mm CLR
09:44 81.7 °F /  27.6 °C 63 °F /  17.2 °C 30.1in /  1018.8hPa SE 2.9mph /  4.7km/h 4.6mph /  7.4km/h 53% 0in /  0.0mm CLR
09:49 82.2 °F /  27.9 °C 63.3 °F /  17.4 °C 30.1in /  1018.8hPa NNW 2.4mph /  3.9km/h 2.3mph /  3.7km/h 53% 0in /  0.0mm CLR
09:54 82.8 °F /  28.2 °C 63.3 °F /  17.4 °C 30.1in /  1018.8hPa NE 2.4mph /  3.9km/h 6.9mph /  11.1km/h 52% 0in /  0.0mm CLR
09:59 82.8 °F /  28.2 °C 63.9 °F /  17.7 °C 30.1in /  1018.8hPa ENE 3.6mph /  5.8km/h 5.8mph /  9.3km/h 53% 0in /  0.0mm CLR
10:04 82.8 °F /  28.2 °C 63.9 °F /  17.7 °C 30.1in /  1018.8hPa NE 3.6mph /  5.8km/h 11.5mph /  18.5km/h 53% 0in /  0.0mm CLR
10:09 82.2 °F /  27.9 °C 63.9 °F /  17.7 °C 30.1in /  1018.8hPa ENE 6.4mph /  10.3km/h 10.4mph /  16.7km/h 54% 0in /  0.0mm CLR
10:14 82.4 °F /  28.0 °C 64 °F /  17.8 °C 30.1in /  1018.8hPa NE 6.4mph /  10.3km/h 9.2mph /  14.8km/h 54% 0in /  0.0mm CLR
10:19 82.6 °F /  28.1 °C 64.2 °F /  17.9 °C 30.1in /  1018.7hPa NNE 5.9mph /  9.5km/h 9.7mph /  15.6km/h 54% 0in /  0.0mm CLR
10:24 82.9 °F /  28.3 °C 64 °F /  17.8 °C 30.1in /  1018.7hPa NE 5.9mph /  9.5km/h 9.2mph /  14.8km/h 53% 0in /  0.0mm CLR
10:29 83.1 °F /  28.4 °C 63.7 °F /  17.6 °C 30.1in /  1018.7hPa ENE 6.2mph /  10.0km/h 9.2mph /  14.8km/h 52% 0in /  0.0mm CLR
10:34 83.3 °F /  28.5 °C 63.9 °F /  17.7 °C 30.1in /  1018.8hPa North 6.2mph /  10.0km/h 10mph /  16.1km/h 52% 0in /  0.0mm CLR
10:39 83.5 °F /  28.6 °C 64 °F /  17.8 °C 30.1in /  1018.8hPa NNE 6.4mph /  10.3km/h 10.2mph /  16.4km/h 52% 0in /  0.0mm CLR
10:44 83.5 °F /  28.6 °C 64.6 °F /  18.1 °C 30.1in /  1018.8hPa North 6.4mph /  10.3km/h 9.7mph /  15.6km/h 53% 0in /  0.0mm CLR
10:49 83.7 °F /  28.7 °C 63.7 °F /  17.6 °C 30.1in /  1018.7hPa NNW 8.1mph /  13.0km/h 17.3mph /  27.8km/h 51% 0in /  0.0mm CLR
10:54 84 °F /  28.9 °C 63.9 °F /  17.7 °C 30.1in /  1018.7hPa NNE 8.1mph /  13.0km/h 13.8mph /  22.2km/h 51% 0in /  0.0mm CLR
10:59 84 °F /  28.9 °C 64.6 °F /  18.1 °C 30.1in /  1018.7hPa ENE 9.2mph /  14.8km/h 10.4mph /  16.7km/h 52% 0in /  0.0mm CLR
11:04 84.6 °F /  29.2 °C 64.4 °F /  18.0 °C 30.1in /  1018.8hPa NE 9.2mph /  14.8km/h 8.1mph /  13.0km/h 51% 0in /  0.0mm CLR
11:09 84.7 °F /  29.3 °C 63.5 °F /  17.5 °C 30.1in /  1018.8hPa NE 7.6mph /  12.2km/h 15mph /  24.1km/h 49% 0in /  0.0mm CLR
11:14 84.9 °F /  29.4 °C 63.7 °F /  17.6 °C 30.1in /  1018.8hPa NNE 7.6mph /  12.2km/h 16.8mph /  27.0km/h 49% 0in /  0.0mm CLR
11:19 85.3 °F /  29.6 °C 63.3 °F /  17.4 °C 30.1in /  1018.8hPa NNE 10mph /  16.1km/h 17.3mph /  27.8km/h 48% 0in /  0.0mm CLR
11:24 85.5 °F /  29.7 °C 62.2 °F /  16.8 °C 30.1in /  1018.8hPa NNE 10mph /  16.1km/h 13.8mph /  22.2km/h 46% 0in /  0.0mm CLR
11:29 85.8 °F /  29.9 °C 59.4 °F /  15.2 °C 30.1in /  1018.8hPa NE 10.2mph /  16.4km/h 17.3mph /  27.8km/h 41% 0in /  0.0mm CLR
11:34 86.2 °F /  30.1 °C 59 °F /  15.0 °C 30.1in /  1018.8hPa ENE 10.2mph /  16.4km/h 16.1mph /  25.9km/h 40% 0in /  0.0mm CLR
11:39 86.4 °F /  30.2 °C 58.5 °F /  14.7 °C 30.1in /  1018.8hPa East 11.8mph /  19.0km/h 17.3mph /  27.8km/h 39% 0in /  0.0mm CLR
11:44 87.3 °F /  30.7 °C 57.7 °F /  14.3 °C 30.1in /  1018.8hPa NNE 11.8mph /  19.0km/h 17.3mph /  27.8km/h 37% 0in /  0.0mm CLR
11:49 87.6 °F /  30.9 °C 56.7 °F /  13.7 °C 30.1in /  1018.8hPa ENE 10mph /  16.1km/h 13.8mph /  22.2km/h 35% 0in /  0.0mm CLR
11:54 88 °F /  31.1 °C 56.8 °F /  13.8 °C 30.1in /  1018.8hPa North 10mph /  16.1km/h 15mph /  24.1km/h 35% 0in /  0.0mm CLR
11:59 88 °F /  31.1 °C 56.1 °F /  13.4 °C 30.1in /  1018.8hPa NNE 10.2mph /  16.4km/h 13.8mph /  22.2km/h 34% 0in /  0.0mm CLR
12:04 88.2 °F /  31.2 °C 57 °F /  13.9 °C 30.1in /  1018.7hPa ENE 10.2mph /  16.4km/h 11.5mph /  18.5km/h 35% 0in /  0.0mm CLR
12:09 88.2 °F /  31.2 °C 55.4 °F /  13.0 °C 30.1in /  1018.7hPa ENE 10mph /  16.1km/h 20.7mph /  33.3km/h 33% 0in /  0.0mm CLR
12:14 88.2 °F /  31.2 °C 56.3 °F /  13.5 °C 30.1in /  1018.7hPa NE 10mph /  16.1km/h 11.5mph /  18.5km/h 34% 0in /  0.0mm CLR
12:19 88 °F /  31.1 °C 56.1 °F /  13.4 °C 30.1in /  1018.7hPa NE 10.7mph /  17.2km/h 17.3mph /  27.8km/h 34% 0in /  0.0mm CLR
12:24 88.3 °F /  31.3 °C 55.6 °F /  13.1 °C 30.1in /  1018.7hPa NNE 10.7mph /  17.2km/h 15mph /  24.1km/h 33% 0in /  0.0mm CLR
12:29 88.5 °F /  31.4 °C 56.7 °F /  13.7 °C 30.1in /  1018.7hPa East 10.7mph /  17.2km/h 16.1mph /  25.9km/h 34% 0in /  0.0mm CLR
12:34 88.9 °F /  31.6 °C 55.2 °F /  12.9 °C 30.1in /  1018.5hPa ENE 10.7mph /  17.2km/h 16.1mph /  25.9km/h 32% 0in /  0.0mm CLR
12:39 89.2 °F /  31.8 °C 55.6 °F /  13.1 °C 30.1in /  1018.5hPa NE 9.7mph /  15.6km/h 15mph /  24.1km/h 32% 0in /  0.0mm CLR
12:44 89.2 °F /  31.8 °C 53.8 °F /  12.1 °C 30.1in /  1018.5hPa NNE 9.7mph /  15.6km/h 15mph /  24.1km/h 30% 0in /  0.0mm CLR
12:49 89.4 °F /  31.9 °C 54 °F /  12.2 °C 30.1in /  1018.4hPa NNE 10.2mph /  16.4km/h 16.1mph /  25.9km/h 30% 0in /  0.0mm CLR
12:54 89.2 °F /  31.8 °C 53.8 °F /  12.1 °C 30.1in /  1018.4hPa ENE 10.2mph /  16.4km/h 15mph /  24.1km/h 30% 0in /  0.0mm CLR
12:59 89.6 °F /  32.0 °C 51.3 °F /  10.7 °C 30.1in /  1018.4hPa NNE 11.4mph /  18.3km/h 20.7mph /  33.3km/h 27% 0in /  0.0mm CLR
13:04 90 °F /  32.2 °C 52.5 °F /  11.4 °C 30.1in /  1018.5hPa NE 11.4mph /  18.3km/h 15mph /  24.1km/h 28% 0in /  0.0mm CLR
13:09 90.1 °F /  32.3 °C 52.5 °F /  11.4 °C 30.1in /  1018.5hPa ENE 10.2mph /  16.4km/h 17.3mph /  27.8km/h 28% 0in /  0.0mm CLR
13:14 90 °F /  32.2 °C 53.4 °F /  11.9 °C 30.1in /  1018.5hPa NE 10.2mph /  16.4km/h 15.2mph /  24.5km/h 29% 0in /  0.0mm CLR
13:19 90 °F /  32.2 °C 55.2 °F /  12.9 °C 30.1in /  1018.5hPa East 11.2mph /  18.0km/h 12.7mph /  20.4km/h 31% 0in /  0.0mm CLR
13:24 90.1 °F /  32.3 °C 55.4 °F /  13.0 °C 30.1in /  1018.5hPa ENE 11.2mph /  18.0km/h 18.4mph /  29.6km/h 31% 0in /  0.0mm CLR
13:29 90.1 °F /  32.3 °C 56.3 °F /  13.5 °C 30.1in /  1018.5hPa NE 10mph /  16.1km/h 14.7mph /  23.7km/h 32% 0in /  0.0mm CLR
13:34 89.8 °F /  32.1 °C 55.9 °F /  13.3 °C 30.1in /  1018.5hPa ENE 10mph /  16.1km/h 15mph /  24.1km/h 32% 0in /  0.0mm CLR
13:39 89.8 °F /  32.1 °C 57.7 °F /  14.3 °C 30.1in /  1018.5hPa NE 10.7mph /  17.2km/h 13.8mph /  22.2km/h 34% 0in /  0.0mm CLR
13:44 89.8 °F /  32.1 °C 55.9 °F /  13.3 °C 30.1in /  1018.5hPa NE 10.7mph /  17.2km/h 15.2mph /  24.5km/h 32% 0in /  0.0mm CLR
13:49 89.4 °F /  31.9 °C 56.5 °F /  13.6 °C 30.1in /  1018.4hPa ENE 10mph /  16.1km/h 17.3mph /  27.8km/h 33% 0in /  0.0mm CLR
13:54 89.6 °F /  32.0 °C 56.7 °F /  13.7 °C 30.1in /  1018.4hPa ENE 10mph /  16.1km/h 12.7mph /  20.4km/h 33% 0in /  0.0mm CLR
13:59 89.6 °F /  32.0 °C 59.2 °F /  15.1 °C 30.1in /  1018.4hPa NNE 10.7mph /  17.2km/h 13.8mph /  22.2km/h 36% 0in /  0.0mm CLR
14:04 89.4 °F /  31.9 °C 58.3 °F /  14.6 °C 30.1in /  1018.3hPa NE 10.7mph /  17.2km/h 18.4mph /  29.6km/h 35% 0in /  0.0mm CLR
14:09 89.4 °F /  31.9 °C 59 °F /  15.0 °C 30.1in /  1018.3hPa NE 11.8mph /  19.0km/h 17.3mph /  27.8km/h 36% 0in /  0.0mm CLR
14:14 89.4 °F /  31.9 °C 59.7 °F /  15.4 °C 30.1in /  1018.3hPa NE 11.8mph /  19.0km/h 18.4mph /  29.6km/h 37% 0in /  0.0mm CLR
14:19 89.2 °F /  31.8 °C 58.8 °F /  14.9 °C 30.1in /  1018.2hPa NE 11.4mph /  18.3km/h 17.3mph /  27.8km/h 36% 0in /  0.0mm CLR
14:24 89.6 °F /  32.0 °C 59.9 °F /  15.5 °C 30.1in /  1018.2hPa NNE 11.4mph /  18.3km/h 13.7mph /  22.0km/h 37% 0in /  0.0mm CLR
14:29 89.4 °F /  31.9 °C 59 °F /  15.0 °C 30.1in /  1018.2hPa East 11.4mph /  18.3km/h 13.8mph /  22.2km/h 36% 0in /  0.0mm CLR
14:34 89.8 °F /  32.1 °C 59.4 °F /  15.2 °C 30.1in /  1018.1hPa NE 11.4mph /  18.3km/h 15mph /  24.1km/h 36% 0in /  0.0mm CLR
14:39 89.4 °F /  31.9 °C 59.7 °F /  15.4 °C 30.1in /  1018.1hPa NNE 10.2mph /  16.4km/h 23mph /  37.0km/h 37% 0in /  0.0mm CLR
14:44 89.8 °F /  32.1 °C 60.1 °F /  15.6 °C 30.1in /  1018.1hPa NNE 10.2mph /  16.4km/h 16.1mph /  25.9km/h 37% 0in /  0.0mm CLR
14:49 89.8 °F /  32.1 °C 59.4 °F /  15.2 °C 30.1in /  1017.9hPa NE 11.4mph /  18.3km/h 17.3mph /  27.8km/h 36% 0in /  0.0mm CLR
14:54 89.6 °F /  32.0 °C 58.3 °F /  14.6 °C 30.1in /  1017.9hPa NNE 11.4mph /  18.3km/h 21.9mph /  35.2km/h 35% 0in /  0.0mm CLR
14:59 89.8 °F /  32.1 °C 60.1 °F /  15.6 °C 30.1in /  1017.9hPa NNE 13mph /  20.9km/h 20.7mph /  33.3km/h 37% 0in /  0.0mm CLR
15:04 90 °F /  32.2 °C 59.4 °F /  15.2 °C 30.1in /  1017.7hPa NNE 13mph /  20.9km/h 21.3mph /  34.3km/h 36% 0in /  0.0mm CLR
15:09 90.1 °F /  32.3 °C 59.5 °F /  15.3 °C 30.1in /  1017.7hPa North 13.5mph /  21.7km/h 17.3mph /  27.8km/h 36% 0in /  0.0mm CLR
15:14 90.7 °F /  32.6 °C 60.1 °F /  15.6 °C 30.1in /  1017.7hPa NE 13.5mph /  21.7km/h 19.6mph /  31.5km/h 36% 0in /  0.0mm CLR
15:19 90.3 °F /  32.4 °C 61.3 °F /  16.3 °C 30.1in /  1017.5hPa ENE 10.7mph /  17.2km/h 17.3mph /  27.8km/h 38% 0in /  0.0mm CLR
15:24 90.3 °F /  32.4 °C 60.4 °F /  15.8 °C 30.1in /  1017.5hPa NE 10.7mph /  17.2km/h 13.7mph /  22.0km/h 37% 0in /  0.0mm CLR
15:29 90.3 °F /  32.4 °C 60.4 °F /  15.8 °C 30.1in /  1017.5hPa NNE 10mph /  16.1km/h 16.1mph /  25.9km/h 37% 0in /  0.0mm CLR
15:34 90.5 °F /  32.5 °C 60.6 °F /  15.9 °C 30in /  1017.4hPa ENE 10mph /  16.1km/h 20.7mph /  33.3km/h 37% 0in /  0.0mm CLR
15:39 90.7 °F /  32.6 °C 60.8 °F /  16.0 °C 30in /  1017.4hPa NNE 10mph /  16.1km/h 13.8mph /  22.2km/h 37% 0in /  0.0mm CLR
15:44 90.7 °F /  32.6 °C 60.8 °F /  16.0 °C 30in /  1017.4hPa ESE 10mph /  16.1km/h 11.5mph /  18.5km/h 37% 0in /  0.0mm CLR
15:49 90.7 °F /  32.6 °C 60.8 °F /  16.0 °C 30in /  1017.3hPa North 10.7mph /  17.2km/h 20.7mph /  33.3km/h 37% 0in /  0.0mm CLR
15:54 90.3 °F /  32.4 °C 60.4 °F /  15.8 °C 30in /  1017.3hPa ENE 10.7mph /  17.2km/h 18.4mph /  29.6km/h 37% 0in /  0.0mm CLR
15:59 90.3 °F /  32.4 °C 61.3 °F /  16.3 °C 30in /  1017.3hPa NE 11.2mph /  18.0km/h 16.1mph /  25.9km/h 38% 0in /  0.0mm CLR
16:04 90.7 °F /  32.6 °C 61.5 °F /  16.4 °C 30in /  1017.3hPa ESE 11.2mph /  18.0km/h 20.7mph /  33.3km/h 38% 0in /  0.0mm CLR
16:09 90.7 °F /  32.6 °C 60.8 °F /  16.0 °C 30in /  1017.3hPa East 10.2mph /  16.4km/h 15mph /  24.1km/h 37% 0in /  0.0mm CLR
16:14 90.5 °F /  32.5 °C 60.6 °F /  15.9 °C 30in /  1017.3hPa ENE 10.2mph /  16.4km/h 15mph /  24.1km/h 37% 0in /  0.0mm CLR
16:19 90.1 °F /  32.3 °C 60.4 °F /  15.8 °C 30in /  1017.3hPa NE 9.7mph /  15.6km/h 20.7mph /  33.3km/h 37% 0in /  0.0mm CLR
16:24 90.5 °F /  32.5 °C 59.2 °F /  15.1 °C 30in /  1017.3hPa NE 9.7mph /  15.6km/h 18.4mph /  29.6km/h 35% 0in /  0.0mm CLR
16:29 90.7 °F /  32.6 °C 59.4 °F /  15.2 °C 30in /  1017.3hPa NE 10.2mph /  16.4km/h 15.2mph /  24.5km/h 35% 0in /  0.0mm CLR
16:34 90.7 °F /  32.6 °C 59.4 °F /  15.2 °C 30in /  1017.2hPa East 10.2mph /  16.4km/h 15mph /  24.1km/h 35% 0in /  0.0mm CLR
16:39 90.9 °F /  32.7 °C 58.6 °F /  14.8 °C 30in /  1017.2hPa NE 10.7mph /  17.2km/h 16.1mph /  25.9km/h 34% 0in /  0.0mm CLR
16:44 90.7 °F /  32.6 °C 60.1 °F /  15.6 °C 30in /  1017.2hPa NE 10.7mph /  17.2km/h 18.4mph /  29.6km/h 36% 0in /  0.0mm CLR
16:49 90.7 °F /  32.6 °C 56.8 °F /  13.8 °C 30in /  1017.2hPa ENE 10.7mph /  17.2km/h 13.8mph /  22.2km/h 32% 0in /  0.0mm CLR
16:54 90.5 °F /  32.5 °C 56.7 °F /  13.7 °C 30in /  1017.2hPa NNE 10.7mph /  17.2km/h 19mph /  30.6km/h 32% 0in /  0.0mm CLR
16:59 90.9 °F /  32.7 °C 56.8 °F /  13.8 °C 30in /  1017.2hPa NNE 12.5mph /  20.1km/h 21.3mph /  34.3km/h 32% 0in /  0.0mm CLR
17:04 90.1 °F /  32.3 °C 57.9 °F /  14.4 °C 30in /  1017.1hPa ENE 12.5mph /  20.1km/h 19.6mph /  31.5km/h 34% 0in /  0.0mm CLR
17:09 90.7 °F /  32.6 °C 56.8 °F /  13.8 °C 30in /  1017.1hPa NE 11.8mph /  19.0km/h 15mph /  24.1km/h 32% 0in /  0.0mm CLR
17:14 90.9 °F /  32.7 °C 56.8 °F /  13.8 °C 30in /  1017.1hPa NNE 11.8mph /  19.0km/h 17.3mph /  27.8km/h 32% 0in /  0.0mm CLR
17:19 90.5 °F /  32.5 °C 56.7 °F /  13.7 °C 30in /  1016.9hPa NNE 12.3mph /  19.8km/h 20.7mph /  33.3km/h 32% 0in /  0.0mm CLR
17:24 90.5 °F /  32.5 °C 56.7 °F /  13.7 °C 30in /  1016.9hPa North 12.3mph /  19.8km/h 18.1mph /  29.1km/h 32% 0in /  0.0mm CLR
17:29 90.3 °F /  32.4 °C 58.1 °F /  14.5 °C 30in /  1016.9hPa NE 13.5mph /  21.7km/h 14.5mph /  23.3km/h 34% 0in /  0.0mm CLR
17:34 90.7 °F /  32.6 °C 57.6 °F /  14.2 °C 30in /  1016.8hPa NE 13.5mph /  21.7km/h 13.8mph /  22.2km/h 33% 0in /  0.0mm CLR
17:39 90.9 °F /  32.7 °C 57.7 °F /  14.3 °C 30in /  1016.8hPa NE 10.7mph /  17.2km/h 16.1mph /  25.9km/h 33% 0in /  0.0mm CLR
17:44 90.7 °F /  32.6 °C 60.1 °F /  15.6 °C 30in /  1016.8hPa NE 10.7mph /  17.2km/h 19mph /  30.6km/h 36% 0in /  0.0mm CLR
17:49 90.1 °F /  32.3 °C 61.2 °F /  16.2 °C 30in /  1016.7hPa ENE 11.2mph /  18.0km/h 13.8mph /  22.2km/h 38% 0in /  0.0mm CLR
17:54 90 °F /  32.2 °C 58.6 °F /  14.8 °C 30in /  1016.7hPa NE 11.2mph /  18.0km/h 17.5mph /  28.2km/h 35% 0in /  0.0mm CLR
17:59 89.8 °F /  32.1 °C 58.5 °F /  14.7 °C 30in /  1016.7hPa East 12.5mph /  20.1km/h 21.9mph /  35.2km/h 35% 0in /  0.0mm CLR
18:04 90 °F /  32.2 °C 59.4 °F /  15.2 °C 30in /  1016.5hPa NE 12.5mph /  20.1km/h 17.3mph /  27.8km/h 36% 0in /  0.0mm CLR
18:09 89.4 °F /  31.9 °C 59 °F /  15.0 °C 30in /  1016.5hPa NE 13.5mph /  21.7km/h 16.1mph /  25.9km/h 36% 0in /  0.0mm CLR
18:14 89.4 °F /  31.9 °C 58.3 °F /  14.6 °C 30in /  1016.5hPa NE 13.5mph /  21.7km/h 20.7mph /  33.3km/h 35% 0in /  0.0mm CLR
18:19 89.4 °F /  31.9 °C 59 °F /  15.0 °C 30in /  1016.4hPa ENE 12.5mph /  20.1km/h 17.3mph /  27.8km/h 36% 0in /  0.0mm CLR
18:24 89.6 °F /  32.0 °C 58.3 °F /  14.6 °C 30in /  1016.4hPa NE 12.5mph /  20.1km/h 18.4mph /  29.6km/h 35% 0in /  0.0mm CLR
18:29 89.4 °F /  31.9 °C 57.4 °F /  14.1 °C 30in /  1016.4hPa NNE 13mph /  20.9km/h 19.2mph /  30.9km/h 34% 0in /  0.0mm CLR
18:34 89.1 °F /  31.7 °C 57 °F /  13.9 °C 30in /  1016.4hPa NE 13mph /  20.9km/h 25.3mph /  40.7km/h 34% 0in /  0.0mm CLR
18:39 89.4 °F /  31.9 °C 56.5 °F /  13.6 °C 30in /  1016.4hPa NNE 13.5mph /  21.7km/h 21.9mph /  35.2km/h 33% 0in /  0.0mm CLR
18:44 89.2 °F /  31.8 °C 57.2 °F /  14.0 °C 30in /  1016.4hPa NE 13.5mph /  21.7km/h 24.2mph /  38.9km/h 34% 0in /  0.0mm CLR
18:49 89.1 °F /  31.7 °C 57 °F /  13.9 °C 30in /  1016.4hPa ENE 14mph /  22.5km/h 21.9mph /  35.2km/h 34% 0in /  0.0mm CLR
18:54 88.9 °F /  31.6 °C 57.7 °F /  14.3 °C 30in /  1016.4hPa NE 14mph /  22.5km/h 19.7mph /  31.7km/h 35% 0in /  0.0mm CLR
18:59 88.9 °F /  31.6 °C 58.5 °F /  14.7 °C 30in /  1016.4hPa NE 13.7mph /  22.0km/h 17.3mph /  27.8km/h 36% 0in /  0.0mm CLR
19:04 88.9 °F /  31.6 °C 56.8 °F /  13.8 °C 30in /  1016.2hPa NE 13.7mph /  22.0km/h 21.9mph /  35.2km/h 34% 0in /  0.0mm CLR
19:09 89.1 °F /  31.7 °C 57.7 °F /  14.3 °C 30in /  1016.2hPa ENE 12.3mph /  19.8km/h 20.7mph /  33.3km/h 35% 0in /  0.0mm CLR
19:14 88.5 °F /  31.4 °C 58.3 °F /  14.6 °C 30in /  1016.2hPa NE 12.3mph /  19.8km/h 17.3mph /  27.8km/h 36% 0in /  0.0mm CLR
19:19 88.5 °F /  31.4 °C 58.8 °F /  14.9 °C 30in /  1016.3hPa ENE 13mph /  20.9km/h 20.7mph /  33.3km/h 37% 0in /  0.0mm CLR
19:24 88.3 °F /  31.3 °C 58.8 °F /  14.9 °C 30in /  1016.3hPa ENE 13mph /  20.9km/h 20.7mph /  33.3km/h 37% 0in /  0.0mm CLR
19:29 88.3 °F /  31.3 °C 58.8 °F /  14.9 °C 30in /  1016.3hPa NE 14mph /  22.5km/h 17.3mph /  27.8km/h 37% 0in /  0.0mm CLR
19:34 88.2 °F /  31.2 °C 58.6 °F /  14.8 °C 30in /  1016.3hPa NNE 14mph /  22.5km/h 19.6mph /  31.5km/h 37% 0in /  0.0mm CLR
19:39 88 °F /  31.1 °C 58.5 °F /  14.7 °C 30in /  1016.3hPa NE 12.5mph /  20.1km/h 17.3mph /  27.8km/h 37% 0in /  0.0mm CLR
19:44 87.8 °F /  31.0 °C 60.4 °F /  15.8 °C 30in /  1016.3hPa NE 12.5mph /  20.1km/h 15mph /  24.1km/h 40% 0in /  0.0mm CLR
19:49 87.6 °F /  30.9 °C 61 °F /  16.1 °C 30in /  1016.4hPa NE 10.7mph /  17.2km/h 18.4mph /  29.6km/h 41% 0in /  0.0mm CLR
19:54 87.4 °F /  30.8 °C 61.5 °F /  16.4 °C 30in /  1016.4hPa East 10.7mph /  17.2km/h 11.5mph /  18.5km/h 42% 0in /  0.0mm CLR
19:59 87.3 °F /  30.7 °C 61.3 °F /  16.3 °C 30in /  1016.4hPa NE 8.7mph /  14.0km/h 11.5mph /  18.5km/h 42% 0in /  0.0mm CLR
20:04 87.1 °F /  30.6 °C 61.2 °F /  16.2 °C 30in /  1016.4hPa ENE 8.7mph /  14.0km/h 12.7mph /  20.4km/h 42% 0in /  0.0mm CLR
20:09 86.7 °F /  30.4 °C 61.5 °F /  16.4 °C 30in /  1016.4hPa NE 7.4mph /  11.9km/h 13.8mph /  22.2km/h 43% 0in /  0.0mm CLR
20:14 86.5 °F /  30.3 °C 61.3 °F /  16.3 °C 30in /  1016.4hPa ENE 7.4mph /  11.9km/h 13mph /  20.9km/h 43% 0in /  0.0mm CLR
20:19 86.4 °F /  30.2 °C 61.9 °F /  16.6 °C 30in /  1016.5hPa NE 7.4mph /  11.9km/h 11.5mph /  18.5km/h 44% 0in /  0.0mm CLR
20:24 86 °F /  30.0 °C 62.2 °F /  16.8 °C 30in /  1016.5hPa NE 7.4mph /  11.9km/h 15mph /  24.1km/h 45% 0in /  0.0mm CLR
20:29 85.8 °F /  29.9 °C 62.1 °F /  16.7 °C 30in /  1016.5hPa ENE 8.1mph /  13.0km/h 10.7mph /  17.2km/h 45% 0in /  0.0mm CLR
20:34 85.6 °F /  29.8 °C 62.4 °F /  16.9 °C 30in /  1016.6hPa ENE 8.1mph /  13.0km/h 13.8mph /  22.2km/h 46% 0in /  0.0mm CLR
20:39 85.5 °F /  29.7 °C 62.2 °F /  16.8 °C 30in /  1016.6hPa ENE 7.4mph /  11.9km/h 11.5mph /  18.5km/h 46% 0in /  0.0mm CLR
20:44 85.5 °F /  29.7 °C 63 °F /  17.2 °C 30in /  1016.6hPa NNE 7.4mph /  11.9km/h 8.1mph /  13.0km/h 47% 0in /  0.0mm CLR
20:49 85.3 °F /  29.6 °C 62.8 °F /  17.1 °C 30in /  1016.8hPa East 5.9mph /  9.5km/h 8.1mph /  13.0km/h 47% 0in /  0.0mm CLR
20:54 84.9 °F /  29.4 °C 62.4 °F /  16.9 °C 30in /  1016.8hPa NE 5.9mph /  9.5km/h 9.2mph /  14.8km/h 47% 0in /  0.0mm CLR
20:59 84.9 °F /  29.4 °C 63 °F /  17.2 °C 30in /  1016.8hPa NE 5.4mph /  8.7km/h 8.1mph /  13.0km/h 48% 0in /  0.0mm CLR
21:04 84.7 °F /  29.3 °C 63.5 °F /  17.5 °C 30in /  1016.9hPa East 5.4mph /  8.7km/h 8.1mph /  13.0km/h 49% 0in /  0.0mm CLR
21:09 84.4 °F /  29.1 °C 63.1 °F /  17.3 °C 30in /  1016.9hPa NE 4.7mph /  7.6km/h 5.8mph /  9.3km/h 49% 0in /  0.0mm CLR
21:14 84 °F /  28.9 °C 63.3 °F /  17.4 °C 30in /  1016.9hPa NE 4.7mph /  7.6km/h 8.7mph /  14.0km/h 50% 0in /  0.0mm CLR
21:19 83.8 °F /  28.8 °C 63.1 °F /  17.3 °C 30in /  1017.0hPa ENE 5.4mph /  8.7km/h 9.2mph /  14.8km/h 50% 0in /  0.0mm CLR
21:24 83.7 °F /  28.7 °C 63.7 °F /  17.6 °C 30in /  1017.0hPa ENE 5.4mph /  8.7km/h 10.4mph /  16.7km/h 51% 0in /  0.0mm CLR
21:29 83.5 °F /  28.6 °C 64 °F /  17.8 °C 30in /  1017.0hPa NE 5.4mph /  8.7km/h 9.2mph /  14.8km/h 52% 0in /  0.0mm CLR
21:34 83.1 °F /  28.4 °C 63.7 °F /  17.6 °C 30in /  1017.0hPa NE 5.4mph /  8.7km/h 9.2mph /  14.8km/h 52% 0in /  0.0mm CLR
21:39 82.9 °F /  28.3 °C 64 °F /  17.8 °C 30in /  1017.0hPa NNE 5.2mph /  8.4km/h 4.6mph /  7.4km/h 53% 0in /  0.0mm CLR
21:44 82.8 °F /  28.2 °C 64.4 °F /  18.0 °C 30in /  1017.0hPa NE 5.2mph /  8.4km/h 4.7mph /  7.6km/h 54% 0in /  0.0mm CLR
21:49 82.6 °F /  28.1 °C 64.2 °F /  17.9 °C 30in /  1017.1hPa NE 4.3mph /  6.9km/h 8.1mph /  13.0km/h 54% 0in /  0.0mm CLR
21:54 82.2 °F /  27.9 °C 64.4 °F /  18.0 °C 30in /  1017.1hPa ENE 4.3mph /  6.9km/h 9.2mph /  14.8km/h 55% 0in /  0.0mm CLR
21:59 82 °F /  27.8 °C 64.2 °F /  17.9 °C 30in /  1017.1hPa NE 6.4mph /  10.3km/h 9.2mph /  14.8km/h 55% 0in /  0.0mm CLR
22:04 82 °F /  27.8 °C 64.8 °F /  18.2 °C 30in /  1017.2hPa NE 6.4mph /  10.3km/h 10.4mph /  16.7km/h 56% 0in /  0.0mm CLR
22:09 81.9 °F /  27.7 °C 65.1 °F /  18.4 °C 30in /  1017.2hPa NE 7.4mph /  11.9km/h 11.2mph /  18.0km/h 57% 0in /  0.0mm CLR
22:14 81.5 °F /  27.5 °C 65.3 °F /  18.5 °C 30in /  1017.2hPa ENE 7.4mph /  11.9km/h 12.7mph /  20.4km/h 58% 0in /  0.0mm CLR
22:19 81.3 °F /  27.4 °C 65.7 °F /  18.7 °C 30in /  1017.2hPa ENE 8.1mph /  13.0km/h 10.4mph /  16.7km/h 59% 0in /  0.0mm CLR
22:24 81.1 °F /  27.3 °C 65.8 °F /  18.8 °C 30in /  1017.2hPa NNE 8.1mph /  13.0km/h 10.4mph /  16.7km/h 60% 0in /  0.0mm CLR
22:29 81 °F /  27.2 °C 65.8 °F /  18.8 °C 30in /  1017.2hPa ENE 6.9mph /  11.1km/h 6.9mph /  11.1km/h 60% 0in /  0.0mm CLR
22:34 80.8 °F /  27.1 °C 66 °F /  18.9 °C 30in /  1017.2hPa NNE 6.9mph /  11.1km/h 10.4mph /  16.7km/h 61% 0in /  0.0mm CLR
22:39 80.6 °F /  27.0 °C 65.8 °F /  18.8 °C 30in /  1017.2hPa NE 6.2mph /  10.0km/h 9.7mph /  15.6km/h 61% 0in /  0.0mm CLR
22:44 80.4 °F /  26.9 °C 65.7 °F /  18.7 °C 30in /  1017.2hPa NNE 6.2mph /  10.0km/h 6.9mph /  11.1km/h 61% 0in /  0.0mm CLR
22:49 80.4 °F /  26.9 °C 66.2 °F /  19.0 °C 30in /  1017.4hPa NNE 5.4mph /  8.7km/h 4.7mph /  7.6km/h 62% 0in /  0.0mm CLR
22:54 80.2 °F /  26.8 °C 66 °F /  18.9 °C 30in /  1017.4hPa NE 5.4mph /  8.7km/h 5.8mph /  9.3km/h 62% 0in /  0.0mm CLR
22:59 80.2 °F /  26.8 °C 66 °F /  18.9 °C 30in /  1017.4hPa NE 4.3mph /  6.9km/h 8.1mph /  13.0km/h 62% 0in /  0.0mm CLR
23:04 80.2 °F /  26.8 °C 66 °F /  18.9 °C 30in /  1017.4hPa ENE 4.3mph /  6.9km/h 8.1mph /  13.0km/h 62% 0in /  0.0mm CLR
23:09 80.1 °F /  26.7 °C 66.4 °F /  19.1 °C 30in /  1017.4hPa ENE 5.2mph /  8.4km/h 6.9mph /  11.1km/h 63% 0in /  0.0mm CLR
23:14 80.1 °F /  26.7 °C 66.4 °F /  19.1 °C 30in /  1017.4hPa NE 5.2mph /  8.4km/h 4.6mph /  7.4km/h 63% 0in /  0.0mm CLR
23:19 80.1 °F /  26.7 °C 66.4 °F /  19.1 °C 30.1in /  1017.5hPa NW 3.6mph /  5.8km/h 2.4mph /  3.9km/h 63% 0in /  0.0mm CLR
23:24 79.9 °F /  26.6 °C 66.2 °F /  19.0 °C 30.1in /  1017.5hPa NW 3.6mph /  5.8km/h 2.4mph /  3.9km/h 63% 0in /  0.0mm CLR
23:29 79.7 °F /  26.5 °C 66.4 °F /  19.1 °C 30.1in /  1017.5hPa NW 2mph /  3.2km/h 2mph /  3.2km/h 64% 0in /  0.0mm CLR
23:34 79.5 °F /  26.4 °C 66.4 °F /  19.1 °C 30.1in /  1017.5hPa NW 2mph /  3.2km/h   64% 0in /  0.0mm CLR
23:39 79.5 °F /  26.4 °C 66.4 °F /  19.1 °C 30.1in /  1017.5hPa Calm   3.6mph /  5.8km/h 64% 0in /  0.0mm CLR
23:44 79.5 °F /  26.4 °C 66.4 °F /  19.1 °C 30.1in /  1017.5hPa Calm   4.6mph /  7.4km/h 64% 0in /  0.0mm CLR
23:49 79.5 °F /  26.4 °C 66.4 °F /  19.1 °C 30.1in /  1017.5hPa NNW 2.4mph /  3.9km/h 1.4mph /  2.3km/h 64% 0in /  0.0mm CLR
23:54 79.5 °F /  26.4 °C 66.4 °F /  19.1 °C 30.1in /  1017.5hPa NE 2.4mph /  3.9km/h 4.6mph /  7.4km/h 64% 0in /  0.0mm CLR
23:59 79.5 °F /  26.4 °C 66.4 °F /  19.1 °C 30.1in /  1017.5hPa NE 2.4mph /  3.9km/h 5.8mph /  9.3km/h 64% 0in /  0.0mm CLR
Murcia-Puente Tocinos, España
Compliments of Weather Underground - 2.75 mb

La estación de MeteoMurcia.com, publica sus datos en los siguientes proyectos:

Weather Underground PWS IMURCIAP2 Meteoclimatic www.awekas.at

W3Counter
Web Analytics